sensor_id;sensor_type;location;lat;lon;timestamp;temperature;humidity
17128;DHT22;8679;50.842;4.322;2022-08-19T00:01:28;20.20;99.90
17128;DHT22;8679;50.842;4.322;2022-08-19T00:03:56;20.10;99.90
17128;DHT22;8679;50.842;4.322;2022-08-19T00:06:22;20.10;99.90
17128;DHT22;8679;50.842;4.322;2022-08-19T00:08:47;20.10;99.90
17128;DHT22;8679;50.842;4.322;2022-08-19T00:11:13;20.10;99.90
17128;DHT22;8679;50.842;4.322;2022-08-19T00:13:39;20.10;99.90
17128;DHT22;8679;50.842;4.322;2022-08-19T00:16:06;20.10;99.90
17128;DHT22;8679;50.842;4.322;2022-08-19T00:18:33;20.10;99.90
17128;DHT22;8679;50.842;4.322;2022-08-19T00:20:59;20.10;99.90
17128;DHT22;8679;50.842;4.322;2022-08-19T00:23:25;20.10;99.90
17128;DHT22;8679;50.842;4.322;2022-08-19T00:25:51;20.00;99.90
17128;DHT22;8679;50.842;4.322;2022-08-19T00:28:18;20.00;99.90
17128;DHT22;8679;50.842;4.322;2022-08-19T00:30:44;20.00;99.90
17128;DHT22;8679;50.842;4.322;2022-08-19T00:33:10;19.90;99.90
17128;DHT22;8679;50.842;4.322;2022-08-19T00:35:36;19.90;99.90
17128;DHT22;8679;50.842;4.322;2022-08-19T00:38:04;19.90;99.90
17128;DHT22;8679;50.842;4.322;2022-08-19T00:40:31;19.90;99.90
17128;DHT22;8679;50.842;4.322;2022-08-19T00:42:57;19.90;99.90
17128;DHT22;8679;50.842;4.322;2022-08-19T00:45:28;19.90;99.90
17128;DHT22;8679;50.842;4.322;2022-08-19T00:47:56;19.90;99.90
17128;DHT22;8679;50.842;4.322;2022-08-19T00:50:21;19.90;99.90
17128;DHT22;8679;50.842;4.322;2022-08-19T00:52:50;19.90;99.90
17128;DHT22;8679;50.842;4.322;2022-08-19T00:55:20;19.90;99.90
17128;DHT22;8679;50.842;4.322;2022-08-19T00:57:51;19.90;99.90
17128;DHT22;8679;50.842;4.322;2022-08-19T01:00:21;19.90;99.90
17128;DHT22;8679;50.842;4.322;2022-08-19T01:02:47;19.90;99.90
17128;DHT22;8679;50.842;4.322;2022-08-19T01:05:18;19.90;99.90
17128;DHT22;8679;50.842;4.322;2022-08-19T01:07:46;19.90;99.90
17128;DHT22;8679;50.842;4.322;2022-08-19T01:10:17;19.90;99.90
17128;DHT22;8679;50.842;4.322;2022-08-19T01:12:45;19.90;99.90
17128;DHT22;8679;50.842;4.322;2022-08-19T01:15:14;19.80;99.90
17128;DHT22;8679;50.842;4.322;2022-08-19T01:17:42;19.80;99.90
17128;DHT22;8679;50.842;4.322;2022-08-19T01:20:16;19.70;99.90
17128;DHT22;8679;50.842;4.322;2022-08-19T01:22:46;19.70;99.90
17128;DHT22;8679;50.842;4.322;2022-08-19T01:25:14;19.70;99.90
17128;DHT22;8679;50.842;4.322;2022-08-19T01:27:43;19.60;99.90
17128;DHT22;8679;50.842;4.322;2022-08-19T01:30:14;19.50;99.90
17128;DHT22;8679;50.842;4.322;2022-08-19T01:32:40;19.40;99.90
17128;DHT22;8679;50.842;4.322;2022-08-19T01:35:06;19.40;99.90
17128;DHT22;8679;50.842;4.322;2022-08-19T01:37:43;19.30;99.90
17128;DHT22;8679;50.842;4.322;2022-08-19T01:40:09;19.20;99.90
17128;DHT22;8679;50.842;4.322;2022-08-19T01:42:35;19.20;99.90
17128;DHT22;8679;50.842;4.322;2022-08-19T01:45:01;19.20;99.90
17128;DHT22;8679;50.842;4.322;2022-08-19T01:47:26;19.20;99.90
17128;DHT22;8679;50.842;4.322;2022-08-19T01:49:53;19.10;99.90
17128;DHT22;8679;50.842;4.322;2022-08-19T01:52:19;19.00;99.90
17128;DHT22;8679;50.842;4.322;2022-08-19T01:54:45;19.00;99.90
17128;DHT22;8679;50.842;4.322;2022-08-19T01:57:12;19.00;99.90
17128;DHT22;8679;50.842;4.322;2022-08-19T01:59:40;19.00;99.90
17128;DHT22;8679;50.842;4.322;2022-08-19T02:02:06;18.90;99.90
17128;DHT22;8679;50.842;4.322;2022-08-19T02:04:36;18.90;99.90
17128;DHT22;8679;50.842;4.322;2022-08-19T02:07:03;18.80;99.90
17128;DHT22;8679;50.842;4.322;2022-08-19T02:09:31;18.70;99.90
17128;DHT22;8679;50.842;4.322;2022-08-19T02:11:56;18.70;99.90
17128;DHT22;8679;50.842;4.322;2022-08-19T02:14:22;18.70;99.90
17128;DHT22;8679;50.842;4.322;2022-08-19T02:16:48;18.70;99.90
17128;DHT22;8679;50.842;4.322;2022-08-19T02:19:14;18.60;99.90
17128;DHT22;8679;50.842;4.322;2022-08-19T02:21:39;18.60;99.90
17128;DHT22;8679;50.842;4.322;2022-08-19T02:24:05;18.50;99.90
17128;DHT22;8679;50.842;4.322;2022-08-19T02:26:32;18.40;99.90
17128;DHT22;8679;50.842;4.322;2022-08-19T02:28:57;18.40;99.90
17128;DHT22;8679;50.842;4.322;2022-08-19T02:31:24;18.40;99.90
17128;DHT22;8679;50.842;4.322;2022-08-19T02:33:50;18.40;99.90
17128;DHT22;8679;50.842;4.322;2022-08-19T02:36:17;18.30;99.90
17128;DHT22;8679;50.842;4.322;2022-08-19T02:38:44;18.20;99.90
17128;DHT22;8679;50.842;4.322;2022-08-19T02:41:23;18.10;99.90
17128;DHT22;8679;50.842;4.322;2022-08-19T02:43:49;18.10;99.90
17128;DHT22;8679;50.842;4.322;2022-08-19T02:46:19;18.10;99.90
17128;DHT22;8679;50.842;4.322;2022-08-19T02:48:50;18.10;99.90
17128;DHT22;8679;50.842;4.322;2022-08-19T02:51:23;18.10;99.90
17128;DHT22;8679;50.842;4.322;2022-08-19T02:53:50;18.10;99.90
17128;DHT22;8679;50.842;4.322;2022-08-19T02:56:16;18.00;99.90
17128;DHT22;8679;50.842;4.322;2022-08-19T02:58:42;18.10;99.90
17128;DHT22;8679;50.842;4.322;2022-08-19T03:01:08;18.10;99.90
17128;DHT22;8679;50.842;4.322;2022-08-19T03:03:35;18.00;99.90
17128;DHT22;8679;50.842;4.322;2022-08-19T03:06:13;18.00;99.90
17128;DHT22;8679;50.842;4.322;2022-08-19T03:08:41;18.00;99.90
17128;DHT22;8679;50.842;4.322;2022-08-19T03:11:23;17.90;99.90
17128;DHT22;8679;50.842;4.322;2022-08-19T03:13:50;17.90;99.90
17128;DHT22;8679;50.842;4.322;2022-08-19T03:16:17;17.90;99.90
17128;DHT22;8679;50.842;4.322;2022-08-19T03:18:43;17.80;99.90
17128;DHT22;8679;50.842;4.322;2022-08-19T03:21:09;17.80;99.90
17128;DHT22;8679;50.842;4.322;2022-08-19T03:23:35;17.80;99.90
17128;DHT22;8679;50.842;4.322;2022-08-19T03:26:05;17.80;99.90
17128;DHT22;8679;50.842;4.322;2022-08-19T03:28:31;17.80;99.90
17128;DHT22;8679;50.842;4.322;2022-08-19T03:31:03;17.80;99.90
17128;DHT22;8679;50.842;4.322;2022-08-19T03:33:30;17.80;99.90
17128;DHT22;8679;50.842;4.322;2022-08-19T03:36:01;17.80;99.90
17128;DHT22;8679;50.842;4.322;2022-08-19T03:38:28;17.70;99.90
17128;DHT22;8679;50.842;4.322;2022-08-19T03:40:53;17.70;99.90
17128;DHT22;8679;50.842;4.322;2022-08-19T03:43:19;17.60;99.90
17128;DHT22;8679;50.842;4.322;2022-08-19T03:45:45;17.60;99.90
17128;DHT22;8679;50.842;4.322;2022-08-19T03:48:10;17.50;99.90
17128;DHT22;8679;50.842;4.322;2022-08-19T03:50:39;17.50;99.90
17128;DHT22;8679;50.842;4.322;2022-08-19T03:53:05;17.50;99.90
17128;DHT22;8679;50.842;4.322;2022-08-19T03:55:32;17.40;99.90
17128;DHT22;8679;50.842;4.322;2022-08-19T03:57:58;17.40;99.90
17128;DHT22;8679;50.842;4.322;2022-08-19T04:00:24;17.40;99.90
17128;DHT22;8679;50.842;4.322;2022-08-19T04:02:50;17.30;99.90
17128;DHT22;8679;50.842;4.322;2022-08-19T04:05:15;17.30;99.90
17128;DHT22;8679;50.842;4.322;2022-08-19T04:07:41;17.20;99.90
17128;DHT22;8679;50.842;4.322;2022-08-19T04:10:07;17.20;99.90
17128;DHT22;8679;50.842;4.322;2022-08-19T04:12:33;17.20;99.90
17128;DHT22;8679;50.842;4.322;2022-08-19T04:14:59;17.20;99.90
17128;DHT22;8679;50.842;4.322;2022-08-19T04:17:24;17.20;99.90
17128;DHT22;8679;50.842;4.322;2022-08-19T04:19:51;17.20;99.90
17128;DHT22;8679;50.842;4.322;2022-08-19T04:22:16;17.10;99.90
17128;DHT22;8679;50.842;4.322;2022-08-19T04:24:43;17.10;99.90
17128;DHT22;8679;50.842;4.322;2022-08-19T04:27:10;17.10;99.90
17128;DHT22;8679;50.842;4.322;2022-08-19T04:29:36;17.00;99.90
17128;DHT22;8679;50.842;4.322;2022-08-19T04:32:04;17.00;99.90
17128;DHT22;8679;50.842;4.322;2022-08-19T04:34:30;17.00;99.90
17128;DHT22;8679;50.842;4.322;2022-08-19T04:36:58;16.90;99.90
17128;DHT22;8679;50.842;4.322;2022-08-19T04:39:27;17.00;99.90
17128;DHT22;8679;50.842;4.322;2022-08-19T04:42:13;16.90;99.90
17128;DHT22;8679;50.842;4.322;2022-08-19T04:44:57;16.80;99.90
17128;DHT22;8679;50.842;4.322;2022-08-19T04:47:24;16.80;99.90
17128;DHT22;8679;50.842;4.322;2022-08-19T04:49:50;16.70;99.90
17128;DHT22;8679;50.842;4.322;2022-08-19T04:52:15;16.70;99.90
17128;DHT22;8679;50.842;4.322;2022-08-19T04:54:41;16.70;99.90
17128;DHT22;8679;50.842;4.322;2022-08-19T04:57:08;16.70;99.90
17128;DHT22;8679;50.842;4.322;2022-08-19T04:59:36;16.70;99.90
17128;DHT22;8679;50.842;4.322;2022-08-19T05:02:03;16.80;99.90
17128;DHT22;8679;50.842;4.322;2022-08-19T05:04:29;16.80;99.90
17128;DHT22;8679;50.842;4.322;2022-08-19T05:06:56;16.70;99.90
17128;DHT22;8679;50.842;4.322;2022-08-19T05:09:21;16.80;99.90
17128;DHT22;8679;50.842;4.322;2022-08-19T05:11:47;16.70;99.90
17128;DHT22;8679;50.842;4.322;2022-08-19T05:14:16;16.70;99.90
17128;DHT22;8679;50.842;4.322;2022-08-19T05:16:41;16.70;99.90
17128;DHT22;8679;50.842;4.322;2022-08-19T05:19:08;16.80;99.90
17128;DHT22;8679;50.842;4.322;2022-08-19T05:21:52;16.80;99.90
17128;DHT22;8679;50.842;4.322;2022-08-19T05:24:37;16.80;99.90
17128;DHT22;8679;50.842;4.322;2022-08-19T05:27:03;16.90;99.90
17128;DHT22;8679;50.842;4.322;2022-08-19T05:29:32;16.90;99.90
17128;DHT22;8679;50.842;4.322;2022-08-19T05:32:00;16.90;99.90
17128;DHT22;8679;50.842;4.322;2022-08-19T05:34:27;16.90;99.90
17128;DHT22;8679;50.842;4.322;2022-08-19T05:36:56;16.90;99.90
17128;DHT22;8679;50.842;4.322;2022-08-19T05:39:24;17.00;99.90
17128;DHT22;8679;50.842;4.322;2022-08-19T05:41:58;17.10;99.90
17128;DHT22;8679;50.842;4.322;2022-08-19T05:44:26;17.10;99.90
17128;DHT22;8679;50.842;4.322;2022-08-19T05:46:51;17.20;99.90
17128;DHT22;8679;50.842;4.322;2022-08-19T05:49:19;17.30;99.90
17128;DHT22;8679;50.842;4.322;2022-08-19T05:51:45;17.40;99.90
17128;DHT22;8679;50.842;4.322;2022-08-19T05:54:11;17.50;99.90
17128;DHT22;8679;50.842;4.322;2022-08-19T05:56:40;17.60;99.90
17128;DHT22;8679;50.842;4.322;2022-08-19T05:59:08;17.60;99.90
17128;DHT22;8679;50.842;4.322;2022-08-19T06:01:36;17.70;99.90
17128;DHT22;8679;50.842;4.322;2022-08-19T06:04:02;17.80;99.90
17128;DHT22;8679;50.842;4.322;2022-08-19T06:06:28;17.80;99.90
17128;DHT22;8679;50.842;4.322;2022-08-19T06:08:54;17.80;99.90
17128;DHT22;8679;50.842;4.322;2022-08-19T06:11:38;17.80;99.90
17128;DHT22;8679;50.842;4.322;2022-08-19T06:14:11;17.90;99.90
17128;DHT22;8679;50.842;4.322;2022-08-19T06:16:39;17.90;99.90
17128;DHT22;8679;50.842;4.322;2022-08-19T06:19:07;18.00;99.90
17128;DHT22;8679;50.842;4.322;2022-08-19T06:21:35;18.10;99.90
17128;DHT22;8679;50.842;4.322;2022-08-19T06:24:04;18.10;99.90
17128;DHT22;8679;50.842;4.322;2022-08-19T06:26:30;18.20;99.90
17128;DHT22;8679;50.842;4.322;2022-08-19T06:28:57;18.20;99.90
17128;DHT22;8679;50.842;4.322;2022-08-19T06:31:27;18.20;99.90
17128;DHT22;8679;50.842;4.322;2022-08-19T06:33:52;18.20;99.90
17128;DHT22;8679;50.842;4.322;2022-08-19T06:36:20;18.30;99.90
17128;DHT22;8679;50.842;4.322;2022-08-19T06:38:47;18.30;99.90
17128;DHT22;8679;50.842;4.322;2022-08-19T06:41:12;18.40;99.90
17128;DHT22;8679;50.842;4.322;2022-08-19T06:43:38;18.50;99.90
17128;DHT22;8679;50.842;4.322;2022-08-19T06:46:11;18.60;99.90
17128;DHT22;8679;50.842;4.322;2022-08-19T06:48:37;18.60;99.90
17128;DHT22;8679;50.842;4.322;2022-08-19T06:51:03;18.70;99.90
17128;DHT22;8679;50.842;4.322;2022-08-19T06:53:31;18.70;99.90
17128;DHT22;8679;50.842;4.322;2022-08-19T06:55:57;18.70;99.90
17128;DHT22;8679;50.842;4.322;2022-08-19T06:58:30;18.80;99.90
17128;DHT22;8679;50.842;4.322;2022-08-19T07:01:03;18.80;99.90
17128;DHT22;8679;50.842;4.322;2022-08-19T07:03:31;18.80;99.90
17128;DHT22;8679;50.842;4.322;2022-08-19T07:06:03;18.90;99.90
17128;DHT22;8679;50.842;4.322;2022-08-19T07:08:29;18.90;99.90
17128;DHT22;8679;50.842;4.322;2022-08-19T07:10:54;19.00;99.90
17128;DHT22;8679;50.842;4.322;2022-08-19T07:13:20;19.00;99.90
17128;DHT22;8679;50.842;4.322;2022-08-19T07:15:48;19.10;99.90
17128;DHT22;8679;50.842;4.322;2022-08-19T07:18:16;19.20;99.90
17128;DHT22;8679;50.842;4.322;2022-08-19T07:20:45;19.30;99.90
17128;DHT22;8679;50.842;4.322;2022-08-19T07:23:12;19.50;99.90
17128;DHT22;8679;50.842;4.322;2022-08-19T07:25:38;19.60;99.90
17128;DHT22;8679;50.842;4.322;2022-08-19T07:28:05;19.70;99.90
17128;DHT22;8679;50.842;4.322;2022-08-19T07:30:32;19.60;99.90
17128;DHT22;8679;50.842;4.322;2022-08-19T07:32:57;19.60;99.90
17128;DHT22;8679;50.842;4.322;2022-08-19T07:35:23;19.60;99.90
17128;DHT22;8679;50.842;4.322;2022-08-19T07:37:50;19.70;99.90
17128;DHT22;8679;50.842;4.322;2022-08-19T07:40:16;19.60;99.90
17128;DHT22;8679;50.842;4.322;2022-08-19T07:42:42;19.80;99.90
17128;DHT22;8679;50.842;4.322;2022-08-19T07:45:09;19.80;99.90
17128;DHT22;8679;50.842;4.322;2022-08-19T07:47:35;20.00;99.90
17128;DHT22;8679;50.842;4.322;2022-08-19T07:50:03;20.10;99.90
17128;DHT22;8679;50.842;4.322;2022-08-19T07:52:29;20.10;99.90
17128;DHT22;8679;50.842;4.322;2022-08-19T07:54:55;20.20;99.90
17128;DHT22;8679;50.842;4.322;2022-08-19T07:57:21;20.20;99.90
17128;DHT22;8679;50.842;4.322;2022-08-19T07:59:46;20.30;99.90
17128;DHT22;8679;50.842;4.322;2022-08-19T08:02:12;20.30;99.90
17128;DHT22;8679;50.842;4.322;2022-08-19T08:04:38;20.40;99.90
17128;DHT22;8679;50.842;4.322;2022-08-19T08:07:23;20.30;99.90
17128;DHT22;8679;50.842;4.322;2022-08-19T08:10:07;20.30;99.90
17128;DHT22;8679;50.842;4.322;2022-08-19T08:12:37;20.50;99.90
17128;DHT22;8679;50.842;4.322;2022-08-19T08:15:09;20.50;99.90
17128;DHT22;8679;50.842;4.322;2022-08-19T08:17:35;20.50;99.90
17128;DHT22;8679;50.842;4.322;2022-08-19T08:20:04;20.50;99.90
17128;DHT22;8679;50.842;4.322;2022-08-19T08:22:32;20.60;99.90
17128;DHT22;8679;50.842;4.322;2022-08-19T08:25:20;20.60;99.90
17128;DHT22;8679;50.842;4.322;2022-08-19T08:27:46;20.70;99.90
17128;DHT22;8679;50.842;4.322;2022-08-19T08:30:31;20.70;99.90
17128;DHT22;8679;50.842;4.322;2022-08-19T08:32:58;20.70;99.90
17128;DHT22;8679;50.842;4.322;2022-08-19T08:35:24;20.70;99.90
17128;DHT22;8679;50.842;4.322;2022-08-19T08:37:52;20.70;99.90
17128;DHT22;8679;50.842;4.322;2022-08-19T08:40:49;20.70;99.90
17128;DHT22;8679;50.842;4.322;2022-08-19T08:46:03;20.70;99.90
17128;DHT22;8679;50.842;4.322;2022-08-19T08:48:53;20.80;99.90
17128;DHT22;8679;50.842;4.322;2022-08-19T08:51:29;20.80;99.90
17128;DHT22;8679;50.842;4.322;2022-08-19T08:53:59;20.90;99.90
17128;DHT22;8679;50.842;4.322;2022-08-19T08:56:25;20.80;99.90
17128;DHT22;8679;50.842;4.322;2022-08-19T08:59:12;20.90;99.90
17128;DHT22;8679;50.842;4.322;2022-08-19T09:01:42;20.80;99.90
17128;DHT22;8679;50.842;4.322;2022-08-19T09:04:10;20.90;99.90
17128;DHT22;8679;50.842;4.322;2022-08-19T09:06:55;21.00;99.90
17128;DHT22;8679;50.842;4.322;2022-08-19T09:09:28;21.10;99.90
17128;DHT22;8679;50.842;4.322;2022-08-19T09:15:05;21.30;99.90
17128;DHT22;8679;50.842;4.322;2022-08-19T09:17:32;21.40;99.90
17128;DHT22;8679;50.842;4.322;2022-08-19T09:20:19;21.50;99.90
17128;DHT22;8679;50.842;4.322;2022-08-19T09:22:45;21.50;99.90
17128;DHT22;8679;50.842;4.322;2022-08-19T09:25:15;21.30;99.90
17128;DHT22;8679;50.842;4.322;2022-08-19T09:27:42;21.30;99.90
17128;DHT22;8679;50.842;4.322;2022-08-19T09:30:11;21.30;99.90
17128;DHT22;8679;50.842;4.322;2022-08-19T09:32:37;21.40;99.90
17128;DHT22;8679;50.842;4.322;2022-08-19T09:35:04;21.40;99.90
17128;DHT22;8679;50.842;4.322;2022-08-19T09:37:31;21.50;99.90
17128;DHT22;8679;50.842;4.322;2022-08-19T09:39:57;21.60;99.90
17128;DHT22;8679;50.842;4.322;2022-08-19T09:42:23;21.70;99.90
17128;DHT22;8679;50.842;4.322;2022-08-19T09:44:48;21.80;99.90
17128;DHT22;8679;50.842;4.322;2022-08-19T09:47:14;21.90;99.90
17128;DHT22;8679;50.842;4.322;2022-08-19T09:49:41;21.90;99.90
17128;DHT22;8679;50.842;4.322;2022-08-19T09:52:09;21.80;99.90
17128;DHT22;8679;50.842;4.322;2022-08-19T09:54:35;21.80;99.90
17128;DHT22;8679;50.842;4.322;2022-08-19T09:57:01;21.90;99.90
17128;DHT22;8679;50.842;4.322;2022-08-19T09:59:29;21.90;99.90
17128;DHT22;8679;50.842;4.322;2022-08-19T10:01:55;21.90;99.90
17128;DHT22;8679;50.842;4.322;2022-08-19T10:04:21;22.00;99.90
17128;DHT22;8679;50.842;4.322;2022-08-19T10:06:48;22.00;99.90
17128;DHT22;8679;50.842;4.322;2022-08-19T10:09:17;21.90;99.90
17128;DHT22;8679;50.842;4.322;2022-08-19T10:11:44;22.00;99.90
17128;DHT22;8679;50.842;4.322;2022-08-19T10:14:15;22.10;99.90
17128;DHT22;8679;50.842;4.322;2022-08-19T10:16:42;22.10;99.90
17128;DHT22;8679;50.842;4.322;2022-08-19T10:19:08;22.00;99.90
17128;DHT22;8679;50.842;4.322;2022-08-19T10:21:35;22.00;99.90
17128;DHT22;8679;50.842;4.322;2022-08-19T10:24:04;21.80;99.90
17128;DHT22;8679;50.842;4.322;2022-08-19T10:26:34;21.80;99.90
17128;DHT22;8679;50.842;4.322;2022-08-19T10:29:03;21.80;99.90
17128;DHT22;8679;50.842;4.322;2022-08-19T10:31:32;22.00;99.90
17128;DHT22;8679;50.842;4.322;2022-08-19T10:33:59;22.00;99.90
17128;DHT22;8679;50.842;4.322;2022-08-19T10:36:31;22.10;99.90
17128;DHT22;8679;50.842;4.322;2022-08-19T10:39:00;22.10;99.90
17128;DHT22;8679;50.842;4.322;2022-08-19T10:41:32;22.20;99.90
17128;DHT22;8679;50.842;4.322;2022-08-19T10:44:06;22.30;99.90
17128;DHT22;8679;50.842;4.322;2022-08-19T10:46:35;22.20;99.90
17128;DHT22;8679;50.842;4.322;2022-08-19T10:49:04;22.10;99.90
17128;DHT22;8679;50.842;4.322;2022-08-19T10:51:30;21.90;99.90
17128;DHT22;8679;50.842;4.322;2022-08-19T10:54:16;21.80;99.90
17128;DHT22;8679;50.842;4.322;2022-08-19T10:56:41;21.70;99.90
17128;DHT22;8679;50.842;4.322;2022-08-19T10:59:29;21.80;99.90
17128;DHT22;8679;50.842;4.322;2022-08-19T11:01:59;21.90;99.90
17128;DHT22;8679;50.842;4.322;2022-08-19T11:04:27;21.90;99.90
17128;DHT22;8679;50.842;4.322;2022-08-19T11:06:52;22.00;99.90
17128;DHT22;8679;50.842;4.322;2022-08-19T11:09:21;22.20;99.90
17128;DHT22;8679;50.842;4.322;2022-08-19T11:11:52;22.50;99.90
17128;DHT22;8679;50.842;4.322;2022-08-19T11:14:18;22.50;99.90
17128;DHT22;8679;50.842;4.322;2022-08-19T11:16:46;22.50;99.90
17128;DHT22;8679;50.842;4.322;2022-08-19T11:19:13;22.80;99.90
17128;DHT22;8679;50.842;4.322;2022-08-19T11:21:43;22.70;99.90
17128;DHT22;8679;50.842;4.322;2022-08-19T11:24:12;22.60;99.90
17128;DHT22;8679;50.842;4.322;2022-08-19T11:26:40;22.30;99.90
17128;DHT22;8679;50.842;4.322;2022-08-19T11:29:07;22.30;99.90
17128;DHT22;8679;50.842;4.322;2022-08-19T11:31:37;22.10;99.90
17128;DHT22;8679;50.842;4.322;2022-08-19T11:34:06;22.10;99.90
17128;DHT22;8679;50.842;4.322;2022-08-19T11:36:33;22.20;99.90
17128;DHT22;8679;50.842;4.322;2022-08-19T11:38:59;22.10;99.90
17128;DHT22;8679;50.842;4.322;2022-08-19T11:41:25;22.20;99.90
17128;DHT22;8679;50.842;4.322;2022-08-19T11:43:53;22.50;99.90
17128;DHT22;8679;50.842;4.322;2022-08-19T11:46:21;22.60;99.90
17128;DHT22;8679;50.842;4.322;2022-08-19T11:48:48;22.90;99.90
17128;DHT22;8679;50.842;4.322;2022-08-19T11:51:21;23.00;99.90
17128;DHT22;8679;50.842;4.322;2022-08-19T11:53:48;23.30;99.90
17128;DHT22;8679;50.842;4.322;2022-08-19T11:56:15;23.70;99.90
17128;DHT22;8679;50.842;4.322;2022-08-19T11:58:40;23.80;99.90
17128;DHT22;8679;50.842;4.322;2022-08-19T12:01:10;24.00;99.90
17128;DHT22;8679;50.842;4.322;2022-08-19T12:03:37;24.00;99.90
17128;DHT22;8679;50.842;4.322;2022-08-19T12:06:16;24.10;99.90
17128;DHT22;8679;50.842;4.322;2022-08-19T12:08:45;24.40;99.90
17128;DHT22;8679;50.842;4.322;2022-08-19T12:11:12;24.40;99.90
17128;DHT22;8679;50.842;4.322;2022-08-19T12:13:39;24.50;99.90
17128;DHT22;8679;50.842;4.322;2022-08-19T12:16:14;24.50;99.90
17128;DHT22;8679;50.842;4.322;2022-08-19T12:18:42;24.70;99.90
17128;DHT22;8679;50.842;4.322;2022-08-19T12:21:15;24.60;99.90
17128;DHT22;8679;50.842;4.322;2022-08-19T12:23:42;24.60;99.90
17128;DHT22;8679;50.842;4.322;2022-08-19T12:26:09;24.20;99.90
17128;DHT22;8679;50.842;4.322;2022-08-19T12:28:35;24.30;99.90
17128;DHT22;8679;50.842;4.322;2022-08-19T12:31:01;24.20;99.90
17128;DHT22;8679;50.842;4.322;2022-08-19T12:33:27;24.10;99.90
17128;DHT22;8679;50.842;4.322;2022-08-19T12:35:54;24.20;99.90
17128;DHT22;8679;50.842;4.322;2022-08-19T12:38:20;24.20;99.90
17128;DHT22;8679;50.842;4.322;2022-08-19T12:40:49;24.50;99.90
17128;DHT22;8679;50.842;4.322;2022-08-19T12:43:17;24.60;99.90
17128;DHT22;8679;50.842;4.322;2022-08-19T12:45:42;24.80;99.90
17128;DHT22;8679;50.842;4.322;2022-08-19T12:48:09;24.80;99.90
17128;DHT22;8679;50.842;4.322;2022-08-19T12:50:35;24.90;99.90
17128;DHT22;8679;50.842;4.322;2022-08-19T12:53:00;25.00;99.90
17128;DHT22;8679;50.842;4.322;2022-08-19T12:55:26;25.00;99.90
17128;DHT22;8679;50.842;4.322;2022-08-19T12:57:53;25.00;99.90
17128;DHT22;8679;50.842;4.322;2022-08-19T13:00:21;25.80;99.90
17128;DHT22;8679;50.842;4.322;2022-08-19T13:02:49;25.80;99.90
17128;DHT22;8679;50.842;4.322;2022-08-19T13:05:27;25.60;99.90
17128;DHT22;8679;50.842;4.322;2022-08-19T13:07:56;25.20;99.90
17128;DHT22;8679;50.842;4.322;2022-08-19T13:10:25;24.90;99.90
17128;DHT22;8679;50.842;4.322;2022-08-19T13:12:53;24.80;99.90
17128;DHT22;8679;50.842;4.322;2022-08-19T13:15:21;24.60;99.90
17128;DHT22;8679;50.842;4.322;2022-08-19T13:17:49;24.60;99.90
17128;DHT22;8679;50.842;4.322;2022-08-19T13:20:17;24.60;99.90
17128;DHT22;8679;50.842;4.322;2022-08-19T13:22:42;24.40;99.90
17128;DHT22;8679;50.842;4.322;2022-08-19T13:25:10;24.50;99.90
17128;DHT22;8679;50.842;4.322;2022-08-19T13:27:37;24.50;99.90
17128;DHT22;8679;50.842;4.322;2022-08-19T13:30:04;24.70;99.90
17128;DHT22;8679;50.842;4.322;2022-08-19T13:32:50;24.80;99.90
17128;DHT22;8679;50.842;4.322;2022-08-19T13:35:34;24.90;99.90
17128;DHT22;8679;50.842;4.322;2022-08-19T13:37:59;25.10;99.90
17128;DHT22;8679;50.842;4.322;2022-08-19T13:40:29;25.20;99.90
17128;DHT22;8679;50.842;4.322;2022-08-19T13:42:56;25.20;99.90
17128;DHT22;8679;50.842;4.322;2022-08-19T13:45:24;25.00;99.90
17128;DHT22;8679;50.842;4.322;2022-08-19T13:47:52;24.90;99.90
17128;DHT22;8679;50.842;4.322;2022-08-19T13:50:20;24.70;99.90
17128;DHT22;8679;50.842;4.322;2022-08-19T13:52:47;24.80;99.90
17128;DHT22;8679;50.842;4.322;2022-08-19T13:55:15;24.50;99.90
17128;DHT22;8679;50.842;4.322;2022-08-19T13:57:41;24.40;99.90
17128;DHT22;8679;50.842;4.322;2022-08-19T14:00:10;24.40;99.90
17128;DHT22;8679;50.842;4.322;2022-08-19T14:02:37;24.30;99.90
17128;DHT22;8679;50.842;4.322;2022-08-19T14:05:05;24.10;99.90
17128;DHT22;8679;50.842;4.322;2022-08-19T14:07:31;23.80;99.90
17128;DHT22;8679;50.842;4.322;2022-08-19T14:09:58;23.50;99.90
17128;DHT22;8679;50.842;4.322;2022-08-19T14:12:24;23.00;99.90
17128;DHT22;8679;50.842;4.322;2022-08-19T14:14:49;22.70;99.90
17128;DHT22;8679;50.842;4.322;2022-08-19T14:17:15;22.60;99.90
17128;DHT22;8679;50.842;4.322;2022-08-19T14:19:42;22.60;99.90
17128;DHT22;8679;50.842;4.322;2022-08-19T14:22:08;22.70;99.90
17128;DHT22;8679;50.842;4.322;2022-08-19T14:24:37;22.80;99.90
17128;DHT22;8679;50.842;4.322;2022-08-19T14:27:05;22.90;99.90
17128;DHT22;8679;50.842;4.322;2022-08-19T14:29:30;22.80;99.90
17128;DHT22;8679;50.842;4.322;2022-08-19T14:31:56;22.70;99.90
17128;DHT22;8679;50.842;4.322;2022-08-19T14:34:25;22.50;99.90
17128;DHT22;8679;50.842;4.322;2022-08-19T14:36:52;22.40;99.90
17128;DHT22;8679;50.842;4.322;2022-08-19T14:39:17;22.50;99.90
17128;DHT22;8679;50.842;4.322;2022-08-19T14:41:44;22.30;99.90
17128;DHT22;8679;50.842;4.322;2022-08-19T14:44:10;22.30;99.90
17128;DHT22;8679;50.842;4.322;2022-08-19T14:46:38;22.30;99.90
17128;DHT22;8679;50.842;4.322;2022-08-19T14:49:04;22.50;99.90
17128;DHT22;8679;50.842;4.322;2022-08-19T14:51:30;22.70;99.90
17128;DHT22;8679;50.842;4.322;2022-08-19T14:53:56;23.00;99.90
17128;DHT22;8679;50.842;4.322;2022-08-19T14:56:25;23.50;99.90
17128;DHT22;8679;50.842;4.322;2022-08-19T14:58:52;24.60;99.90
17128;DHT22;8679;50.842;4.322;2022-08-19T15:01:19;25.50;99.90
17128;DHT22;8679;50.842;4.322;2022-08-19T15:03:46;25.90;99.90
17128;DHT22;8679;50.842;4.322;2022-08-19T15:06:12;26.10;99.90
17128;DHT22;8679;50.842;4.322;2022-08-19T15:08:40;26.10;99.90
17128;DHT22;8679;50.842;4.322;2022-08-19T15:11:11;26.40;99.90
17128;DHT22;8679;50.842;4.322;2022-08-19T15:13:37;26.70;99.90
17128;DHT22;8679;50.842;4.322;2022-08-19T15:16:03;27.40;99.90
17128;DHT22;8679;50.842;4.322;2022-08-19T15:18:28;27.10;99.90
17128;DHT22;8679;50.842;4.322;2022-08-19T15:20:54;26.40;99.90
17128;DHT22;8679;50.842;4.322;2022-08-19T15:23:20;25.90;99.90
17128;DHT22;8679;50.842;4.322;2022-08-19T15:25:47;25.20;99.90
17128;DHT22;8679;50.842;4.322;2022-08-19T15:28:13;24.80;99.90
17128;DHT22;8679;50.842;4.322;2022-08-19T15:30:40;24.60;99.90
17128;DHT22;8679;50.842;4.322;2022-08-19T15:33:07;24.60;99.90
17128;DHT22;8679;50.842;4.322;2022-08-19T15:35:33;24.50;99.90
17128;DHT22;8679;50.842;4.322;2022-08-19T15:37:58;24.30;99.90
17128;DHT22;8679;50.842;4.322;2022-08-19T15:40:25;24.30;99.90
17128;DHT22;8679;50.842;4.322;2022-08-19T15:42:51;24.10;99.90
17128;DHT22;8679;50.842;4.322;2022-08-19T15:45:19;23.90;99.90
17128;DHT22;8679;50.842;4.322;2022-08-19T15:47:45;23.80;99.90
17128;DHT22;8679;50.842;4.322;2022-08-19T15:50:16;23.70;99.90
17128;DHT22;8679;50.842;4.322;2022-08-19T15:52:56;23.60;99.90
17128;DHT22;8679;50.842;4.322;2022-08-19T15:55:25;23.50;99.90
17128;DHT22;8679;50.842;4.322;2022-08-19T15:57:51;23.40;99.90